sensor_id;sensor_type;location;lat;lon;timestamp;pressure;altitude;pressure_sealevel;temperature;humidity
8334;BME280;4204;43.004;23.052;2022-10-01T00:01:17;94211.94;;;12.73;100.00
8334;BME280;4204;43.004;23.052;2022-10-01T00:03:45;94201.28;;;12.65;100.00
8334;BME280;4204;43.004;23.052;2022-10-01T00:06:15;94196.88;;;12.60;100.00
8334;BME280;4204;43.004;23.052;2022-10-01T00:08:45;94198.47;;;12.61;100.00
8334;BME280;4204;43.004;23.052;2022-10-01T00:11:15;94198.16;;;12.54;100.00
8334;BME280;4204;43.004;23.052;2022-10-01T00:13:43;94199.06;;;12.58;100.00
8334;BME280;4204;43.004;23.052;2022-10-01T00:16:14;94203.47;;;12.63;100.00
8334;BME280;4204;43.004;23.052;2022-10-01T00:18:43;94201.28;;;12.73;100.00
8334;BME280;4204;43.004;23.052;2022-10-01T00:21:14;94194.66;;;12.71;100.00
8334;BME280;4204;43.004;23.052;2022-10-01T00:23:41;94208.94;;;12.83;100.00
8334;BME280;4204;43.004;23.052;2022-10-01T00:26:10;94214.41;;;12.95;100.00
8334;BME280;4204;43.004;23.052;2022-10-01T00:28:39;94210.66;;;12.96;100.00
8334;BME280;4204;43.004;23.052;2022-10-01T00:31:08;94197.44;;;13.00;100.00
8334;BME280;4204;43.004;23.052;2022-10-01T00:33:37;94200.75;;;13.06;100.00
8334;BME280;4204;43.004;23.052;2022-10-01T00:36:06;94196.66;;;13.08;100.00
8334;BME280;4204;43.004;23.052;2022-10-01T00:38:34;94193.88;;;13.05;100.00
8334;BME280;4204;43.004;23.052;2022-10-01T00:41:03;94200.94;;;13.09;100.00
8334;BME280;4204;43.004;23.052;2022-10-01T00:43:33;94199.66;;;13.07;100.00
8334;BME280;4204;43.004;23.052;2022-10-01T00:46:04;94201.69;;;13.01;100.00
8334;BME280;4204;43.004;23.052;2022-10-01T00:48:38;94194.94;;;13.12;100.00
8334;BME280;4204;43.004;23.052;2022-10-01T00:51:09;94200.91;;;13.18;100.00
8334;BME280;4204;43.004;23.052;2022-10-01T00:53:39;94196.19;;;13.15;100.00
8334;BME280;4204;43.004;23.052;2022-10-01T00:56:08;94195.13;;;13.07;100.00
8334;BME280;4204;43.004;23.052;2022-10-01T00:58:35;94194.63;;;13.14;100.00
8334;BME280;4204;43.004;23.052;2022-10-01T01:01:04;94189.78;;;13.07;100.00
8334;BME280;4204;43.004;23.052;2022-10-01T01:03:32;94180.00;;;13.02;100.00
8334;BME280;4204;43.004;23.052;2022-10-01T01:06:02;94189.56;;;13.03;100.00
8334;BME280;4204;43.004;23.052;2022-10-01T01:08:34;94189.56;;;13.03;100.00
8334;BME280;4204;43.004;23.052;2022-10-01T01:11:06;94189.44;;;13.09;100.00
8334;BME280;4204;43.004;23.052;2022-10-01T01:13:45;94185.84;;;13.05;100.00
8334;BME280;4204;43.004;23.052;2022-10-01T01:16:18;94191.19;;;13.05;100.00
8334;BME280;4204;43.004;23.052;2022-10-01T01:18:52;94181.44;;;13.09;100.00
8334;BME280;4204;43.004;23.052;2022-10-01T01:21:28;94175.47;;;13.12;100.00
8334;BME280;4204;43.004;23.052;2022-10-01T01:24:13;94186.28;;;13.24;100.00
8334;BME280;4204;43.004;23.052;2022-10-01T01:27:07;94170.28;;;13.15;100.00
8334;BME280;4204;43.004;23.052;2022-10-01T01:29:44;94179.06;;;13.16;100.00
8334;BME280;4204;43.004;23.052;2022-10-01T01:32:16;94176.53;;;13.19;100.00
8334;BME280;4204;43.004;23.052;2022-10-01T01:34:47;94176.53;;;13.19;100.00
8334;BME280;4204;43.004;23.052;2022-10-01T01:37:20;94174.50;;;13.16;100.00
8334;BME280;4204;43.004;23.052;2022-10-01T01:39:52;94163.34;;;13.14;100.00
8334;BME280;4204;43.004;23.052;2022-10-01T01:42:25;94179.34;;;13.23;100.00
8334;BME280;4204;43.004;23.052;2022-10-01T01:44:59;94181.56;;;13.21;100.00
8334;BME280;4204;43.004;23.052;2022-10-01T01:47:29;94188.00;;;13.20;100.00
8334;BME280;4204;43.004;23.052;2022-10-01T01:49:59;94172.28;;;13.18;100.00
8334;BME280;4204;43.004;23.052;2022-10-01T01:52:28;94174.03;;;13.14;100.00
8334;BME280;4204;43.004;23.052;2022-10-01T01:54:56;94190.22;;;13.18;100.00
8334;BME280;4204;43.004;23.052;2022-10-01T01:57:24;94176.56;;;13.11;100.00
8334;BME280;4204;43.004;23.052;2022-10-01T01:59:53;94180.63;;;13.17;100.00
8334;BME280;4204;43.004;23.052;2022-10-01T02:02:25;94191.97;;;13.14;100.00
8334;BME280;4204;43.004;23.052;2022-10-01T02:04:55;94187.09;;;13.16;100.00
8334;BME280;4204;43.004;23.052;2022-10-01T02:07:41;94190.84;;;13.15;100.00
8334;BME280;4204;43.004;23.052;2022-10-01T02:10:22;94207.66;;;13.15;100.00
8334;BME280;4204;43.004;23.052;2022-10-01T02:13:03;94204.19;;;13.15;100.00
8334;BME280;4204;43.004;23.052;2022-10-01T02:15:42;94204.81;;;13.20;100.00
8334;BME280;4204;43.004;23.052;2022-10-01T02:18:21;94210.47;;;13.19;100.00
8334;BME280;4204;43.004;23.052;2022-10-01T02:21:03;94205.94;;;13.11;100.00
8334;BME280;4204;43.004;23.052;2022-10-01T02:23:34;94211.44;;;13.06;100.00
8334;BME280;4204;43.004;23.052;2022-10-01T02:26:08;94219.28;;;12.93;100.00
8334;BME280;4204;43.004;23.052;2022-10-01T02:28:40;94220.06;;;13.02;100.00
8334;BME280;4204;43.004;23.052;2022-10-01T02:31:10;94223.53;;;13.12;100.00
8334;BME280;4204;43.004;23.052;2022-10-01T02:33:41;94219.63;;;13.09;100.00
8334;BME280;4204;43.004;23.052;2022-10-01T02:36:10;94215.38;;;13.08;100.00
8334;BME280;4204;43.004;23.052;2022-10-01T02:38:41;94225.28;;;12.99;100.00
8334;BME280;4204;43.004;23.052;2022-10-01T02:41:13;94215.06;;;13.01;100.00
8334;BME280;4204;43.004;23.052;2022-10-01T02:43:45;94208.28;;;13.03;100.00
8334;BME280;4204;43.004;23.052;2022-10-01T02:46:16;94204.03;;;13.02;100.00
8334;BME280;4204;43.004;23.052;2022-10-01T02:48:48;94203.59;;;13.00;100.00
8334;BME280;4204;43.004;23.052;2022-10-01T02:51:25;94220.56;;;13.05;100.00
8334;BME280;4204;43.004;23.052;2022-10-01T02:53:59;94214.28;;;12.92;100.00
8334;BME280;4204;43.004;23.052;2022-10-01T02:56:29;94206.72;;;12.94;100.00
8334;BME280;4204;43.004;23.052;2022-10-01T02:59:14;94217.72;;;13.01;100.00
8334;BME280;4204;43.004;23.052;2022-10-01T03:01:42;94209.56;;;13.06;100.00
8334;BME280;4204;43.004;23.052;2022-10-01T03:04:11;94221.00;;;13.15;100.00
8334;BME280;4204;43.004;23.052;2022-10-01T03:06:39;94228.41;;;13.10;100.00
8334;BME280;4204;43.004;23.052;2022-10-01T03:09:07;94208.13;;;13.00;100.00
8334;BME280;4204;43.004;23.052;2022-10-01T03:11:35;94224.47;;;12.98;100.00
8334;BME280;4204;43.004;23.052;2022-10-01T03:14:02;94222.28;;;13.09;100.00
8334;BME280;4204;43.004;23.052;2022-10-01T03:16:31;94221.03;;;13.07;100.00
8334;BME280;4204;43.004;23.052;2022-10-01T03:18:59;94230.28;;;13.18;100.00
8334;BME280;4204;43.004;23.052;2022-10-01T03:21:28;94242.41;;;13.07;100.00
8334;BME280;4204;43.004;23.052;2022-10-01T03:23:56;94245.66;;;13.12;100.00
8334;BME280;4204;43.004;23.052;2022-10-01T03:26:23;94247.28;;;13.05;100.00
8334;BME280;4204;43.004;23.052;2022-10-01T03:28:51;94248.19;;;13.00;100.00
8334;BME280;4204;43.004;23.052;2022-10-01T03:31:18;94249.59;;;12.97;100.00
8334;BME280;4204;43.004;23.052;2022-10-01T03:33:46;94248.38;;;12.86;100.00
8334;BME280;4204;43.004;23.052;2022-10-01T03:36:14;94238.44;;;12.95;100.00
8334;BME280;4204;43.004;23.052;2022-10-01T03:38:43;94240.50;;;12.90;100.00
8334;BME280;4204;43.004;23.052;2022-10-01T03:41:10;94240.19;;;12.91;100.00
8334;BME280;4204;43.004;23.052;2022-10-01T03:43:38;94236.72;;;12.99;100.00
8334;BME280;4204;43.004;23.052;2022-10-01T03:46:05;94244.09;;;13.02;100.00
8334;BME280;4204;43.004;23.052;2022-10-01T03:48:33;94233.75;;;12.84;100.00
8334;BME280;4204;43.004;23.052;2022-10-01T03:51:01;94232.03;;;12.79;100.00
8334;BME280;4204;43.004;23.052;2022-10-01T03:53:29;94224.81;;;12.88;100.00
8334;BME280;4204;43.004;23.052;2022-10-01T03:55:58;94215.34;;;12.99;100.00
8334;BME280;4204;43.004;23.052;2022-10-01T03:58:26;94210.34;;;13.07;100.00
8334;BME280;4204;43.004;23.052;2022-10-01T04:00:54;94205.13;;;13.01;100.00
8334;BME280;4204;43.004;23.052;2022-10-01T04:03:23;94199.19;;;13.05;100.00
8334;BME280;4204;43.004;23.052;2022-10-01T04:05:50;94201.69;;;13.01;100.00
8334;BME280;4204;43.004;23.052;2022-10-01T04:08:18;94201.09;;;13.04;100.00
8334;BME280;4204;43.004;23.052;2022-10-01T04:10:45;94197.59;;;13.12;100.00
8334;BME280;4204;43.004;23.052;2022-10-01T04:13:15;94202.19;;;13.12;100.00
8334;BME280;4204;43.004;23.052;2022-10-01T04:15:43;94194.56;;;13.31;100.00
8334;BME280;4204;43.004;23.052;2022-10-01T04:18:11;94198.81;;;13.32;100.00
8334;BME280;4204;43.004;23.052;2022-10-01T04:20:38;94206.50;;;13.33;100.00
8334;BME280;4204;43.004;23.052;2022-10-01T04:23:06;94211.38;;;13.31;100.00
8334;BME280;4204;43.004;23.052;2022-10-01T04:25:33;94204.63;;;13.34;100.00
8334;BME280;4204;43.004;23.052;2022-10-01T04:28:02;94200.22;;;13.29;100.00
8334;BME280;4204;43.004;23.052;2022-10-01T04:30:34;94195.03;;;13.33;100.00
8334;BME280;4204;43.004;23.052;2022-10-01T04:33:02;94210.38;;;13.53;100.00
8334;BME280;4204;43.004;23.052;2022-10-01T04:35:30;94216.31;;;13.58;100.00
8334;BME280;4204;43.004;23.052;2022-10-01T04:37:59;94220.50;;;13.68;100.00
8334;BME280;4204;43.004;23.052;2022-10-01T04:40:29;94216.06;;;13.72;100.00
8334;BME280;4204;43.004;23.052;2022-10-01T04:42:56;94210.56;;;13.77;100.00
8334;BME280;4204;43.004;23.052;2022-10-01T04:45:24;94204.28;;;13.73;100.00
8334;BME280;4204;43.004;23.052;2022-10-01T04:47:54;94208.63;;;13.86;100.00
8334;BME280;4204;43.004;23.052;2022-10-01T04:50:24;94215.34;;;13.92;100.00
8334;BME280;4204;43.004;23.052;2022-10-01T04:52:52;94231.56;;;13.87;100.00
8334;BME280;4204;43.004;23.052;2022-10-01T04:55:20;94221.41;;;14.01;100.00
8334;BME280;4204;43.004;23.052;2022-10-01T04:57:48;94232.34;;;14.17;100.00
8334;BME280;4204;43.004;23.052;2022-10-01T05:00:18;94249.00;;;14.22;100.00
8334;BME280;4204;43.004;23.052;2022-10-01T05:02:48;94226.94;;;14.25;100.00
8334;BME280;4204;43.004;23.052;2022-10-01T05:05:19;94235.31;;;14.44;100.00
8334;BME280;4204;43.004;23.052;2022-10-01T05:07:48;94240.38;;;14.46;100.00
8334;BME280;4204;43.004;23.052;2022-10-01T05:10:17;94236.97;;;14.37;100.00
8334;BME280;4204;43.004;23.052;2022-10-01T05:12:46;94258.22;;;14.63;100.00
8334;BME280;4204;43.004;23.052;2022-10-01T05:15:15;94254.97;;;14.69;100.00
8334;BME280;4204;43.004;23.052;2022-10-01T05:17:43;94244.44;;;14.52;100.00
8334;BME280;4204;43.004;23.052;2022-10-01T05:20:16;94255.69;;;14.78;100.00
8334;BME280;4204;43.004;23.052;2022-10-01T05:22:45;94253.78;;;14.99;100.00
8334;BME280;4204;43.004;23.052;2022-10-01T05:25:15;94230.13;;;15.01;100.00
8334;BME280;4204;43.004;23.052;2022-10-01T05:27:43;94235.47;;;14.89;100.00
8334;BME280;4204;43.004;23.052;2022-10-01T05:30:13;94233.47;;;14.98;100.00
8334;BME280;4204;43.004;23.052;2022-10-01T05:32:52;94237.41;;;15.13;100.00
8334;BME280;4204;43.004;23.052;2022-10-01T05:35:20;94244.47;;;15.17;100.00
8334;BME280;4204;43.004;23.052;2022-10-01T05:37:53;94246.16;;;15.22;100.00
8334;BME280;4204;43.004;23.052;2022-10-01T05:40:21;94245.63;;;15.28;100.00
8334;BME280;4204;43.004;23.052;2022-10-01T05:42:49;94250.31;;;15.31;100.00
8334;BME280;4204;43.004;23.052;2022-10-01T05:45:17;94241.50;;;15.31;100.00
8334;BME280;4204;43.004;23.052;2022-10-01T05:47:46;94236.09;;;15.19;100.00
8334;BME280;4204;43.004;23.052;2022-10-01T05:50:15;94247.53;;;15.28;100.00
8334;BME280;4204;43.004;23.052;2022-10-01T05:52:49;94230.66;;;15.27;100.00
8334;BME280;4204;43.004;23.052;2022-10-01T05:55:20;94226.59;;;15.54;100.00
8334;BME280;4204;43.004;23.052;2022-10-01T05:57:53;94239.47;;;15.73;100.00
8334;BME280;4204;43.004;23.052;2022-10-01T06:00:22;94249.09;;;15.86;100.00
8334;BME280;4204;43.004;23.052;2022-10-01T06:02:53;94256.59;;;16.16;100.00
8334;BME280;4204;43.004;23.052;2022-10-01T06:05:23;94272.38;;;16.30;100.00
8334;BME280;4204;43.004;23.052;2022-10-01T06:07:51;94286.31;;;16.48;100.00
8334;BME280;4204;43.004;23.052;2022-10-01T06:10:21;94295.25;;;16.64;100.00
8334;BME280;4204;43.004;23.052;2022-10-01T06:12:50;94289.91;;;16.64;100.00
8334;BME280;4204;43.004;23.052;2022-10-01T06:15:18;94311.81;;;16.90;100.00
8334;BME280;4204;43.004;23.052;2022-10-01T06:17:46;94312.25;;;16.92;100.00
8334;BME280;4204;43.004;23.052;2022-10-01T06:20:15;94327.00;;;16.98;100.00
8334;BME280;4204;43.004;23.052;2022-10-01T06:22:53;94330.97;;;17.16;100.00
8334;BME280;4204;43.004;23.052;2022-10-01T06:25:23;94326.88;;;17.07;100.00
8334;BME280;4204;43.004;23.052;2022-10-01T06:27:51;94324.06;;;17.15;100.00
8334;BME280;4204;43.004;23.052;2022-10-01T06:30:23;94330.84;;;17.25;100.00
8334;BME280;4204;43.004;23.052;2022-10-01T06:32:52;94315.44;;;17.37;100.00
8334;BME280;4204;43.004;23.052;2022-10-01T06:35:19;94328.22;;;17.68;100.00
8334;BME280;4204;43.004;23.052;2022-10-01T06:37:47;94318.69;;;17.70;100.00
8334;BME280;4204;43.004;23.052;2022-10-01T06:40:15;94318.09;;;17.77;100.00
8334;BME280;4204;43.004;23.052;2022-10-01T06:42:47;94322.38;;;17.94;100.00
8334;BME280;4204;43.004;23.052;2022-10-01T06:45:15;94305.84;;;18.11;100.00
8334;BME280;4204;43.004;23.052;2022-10-01T06:47:43;94296.13;;;18.22;100.00
8334;BME280;4204;43.004;23.052;2022-10-01T06:50:11;94289.84;;;18.33;100.00
8334;BME280;4204;43.004;23.052;2022-10-01T06:52:39;94285.72;;;18.51;100.00
8334;BME280;4204;43.004;23.052;2022-10-01T06:55:16;94274.00;;;18.79;100.00
8334;BME280;4204;43.004;23.052;2022-10-01T06:57:44;94277.06;;;18.96;100.00
8334;BME280;4204;43.004;23.052;2022-10-01T07:00:14;94285.94;;;19.16;100.00
8334;BME280;4204;43.004;23.052;2022-10-01T07:02:41;94297.53;;;19.35;100.00
8334;BME280;4204;43.004;23.052;2022-10-01T07:05:09;94308.31;;;19.55;100.00
8334;BME280;4204;43.004;23.052;2022-10-01T07:07:38;94319.22;;;19.62;100.00
8334;BME280;4204;43.004;23.052;2022-10-01T07:10:08;94314.28;;;19.86;100.00
8334;BME280;4204;43.004;23.052;2022-10-01T07:12:36;94317.19;;;19.97;100.00
8334;BME280;4204;43.004;23.052;2022-10-01T07:15:05;94316.63;;;20.07;100.00
8334;BME280;4204;43.004;23.052;2022-10-01T07:17:42;94321.97;;;20.26;100.00
8334;BME280;4204;43.004;23.052;2022-10-01T07:20:10;94324.75;;;20.30;100.00
8334;BME280;4204;43.004;23.052;2022-10-01T07:22:38;94326.28;;;20.31;100.00
8334;BME280;4204;43.004;23.052;2022-10-01T07:25:06;94317.72;;;20.25;100.00
8334;BME280;4204;43.004;23.052;2022-10-01T07:27:34;94318.72;;;20.40;100.00
8334;BME280;4204;43.004;23.052;2022-10-01T07:30:03;94304.97;;;20.48;100.00
8334;BME280;4204;43.004;23.052;2022-10-01T07:32:31;94324.94;;;20.66;100.00
8334;BME280;4204;43.004;23.052;2022-10-01T07:35:02;94307.94;;;20.66;100.00
8334;BME280;4204;43.004;23.052;2022-10-01T07:37:31;94307.34;;;20.53;100.00
8334;BME280;4204;43.004;23.052;2022-10-01T07:39:59;94292.75;;;20.58;100.00
8334;BME280;4204;43.004;23.052;2022-10-01T07:42:27;94283.66;;;20.69;100.00
8334;BME280;4204;43.004;23.052;2022-10-01T07:44:55;94300.53;;;20.89;100.00
8334;BME280;4204;43.004;23.052;2022-10-01T07:47:22;94310.50;;;21.08;100.00
8334;BME280;4204;43.004;23.052;2022-10-01T07:49:50;94305.81;;;21.05;100.00
8334;BME280;4204;43.004;23.052;2022-10-01T07:52:19;94287.38;;;21.14;100.00
8334;BME280;4204;43.004;23.052;2022-10-01T07:54:47;94290.34;;;21.05;100.00
8334;BME280;4204;43.004;23.052;2022-10-01T07:57:14;94280.53;;;20.93;100.00
8334;BME280;4204;43.004;23.052;2022-10-01T07:59:42;94265.81;;;20.91;100.00
8334;BME280;4204;43.004;23.052;2022-10-01T09:54:52;94412.88;;;20.38;100.00
8334;BME280;4204;43.004;23.052;2022-10-01T09:57:25;94412.03;;;20.34;100.00
8334;BME280;4204;43.004;23.052;2022-10-01T10:00:03;94409.34;;;20.14;100.00
8334;BME280;4204;43.004;23.052;2022-10-01T10:02:38;94405.28;;;20.05;100.00
8334;BME280;4204;43.004;23.052;2022-10-01T10:05:08;94401.13;;;19.88;100.00
8334;BME280;4204;43.004;23.052;2022-10-01T10:07:36;94385.50;;;19.78;100.00
8334;BME280;4204;43.004;23.052;2022-10-01T10:10:16;94361.69;;;19.84;100.00
8334;BME280;4204;43.004;23.052;2022-10-01T10:12:46;94368.97;;;19.80;100.00
8334;BME280;4204;43.004;23.052;2022-10-01T10:15:17;94358.50;;;19.78;100.00
8334;BME280;4204;43.004;23.052;2022-10-01T10:17:48;94345.16;;;19.66;100.00
8334;BME280;4204;43.004;23.052;2022-10-01T10:20:24;94333.09;;;19.60;100.00
8334;BME280;4204;43.004;23.052;2022-10-01T10:23:06;94311.72;;;19.52;100.00
8334;BME280;4204;43.004;23.052;2022-10-01T10:25:36;94310.38;;;19.61;100.00
8334;BME280;4204;43.004;23.052;2022-10-01T10:28:14;94294.59;;;19.63;100.00
8334;BME280;4204;43.004;23.052;2022-10-01T10:30:43;94286.72;;;19.55;100.00
8334;BME280;4204;43.004;23.052;2022-10-01T10:33:12;94297.00;;;19.49;100.00
8334;BME280;4204;43.004;23.052;2022-10-01T10:35:42;94292.66;;;19.64;100.00
8334;BME280;4204;43.004;23.052;2022-10-01T10:38:15;94291.94;;;19.86;100.00
8334;BME280;4204;43.004;23.052;2022-10-01T10:40:45;94302.38;;;19.87;100.00
8334;BME280;4204;43.004;23.052;2022-10-01T10:43:18;94317.66;;;19.80;100.00
8334;BME280;4204;43.004;23.052;2022-10-01T10:45:50;94324.88;;;19.95;100.00
8334;BME280;4204;43.004;23.052;2022-10-01T10:48:22;94323.84;;;20.03;100.00
8334;BME280;4204;43.004;23.052;2022-10-01T10:50:57;94332.44;;;19.86;100.00
8334;BME280;4204;43.004;23.052;2022-10-01T10:53:27;94320.03;;;19.62;100.00
8334;BME280;4204;43.004;23.052;2022-10-01T10:56:00;94310.09;;;19.89;100.00
8334;BME280;4204;43.004;23.052;2022-10-01T10:58:30;94298.97;;;19.90;100.00
8334;BME280;4204;43.004;23.052;2022-10-01T11:01:00;94293.72;;;20.01;100.00
8334;BME280;4204;43.004;23.052;2022-10-01T11:03:31;94315.88;;;19.68;100.00
8334;BME280;4204;43.004;23.052;2022-10-01T11:06:03;94319.94;;;19.78;100.00
8334;BME280;4204;43.004;23.052;2022-10-01T11:08:37;94301.38;;;19.76;100.00
8334;BME280;4204;43.004;23.052;2022-10-01T11:11:16;94272.66;;;19.65;100.00
8334;BME280;4204;43.004;23.052;2022-10-01T11:13:57;94287.53;;;19.36;100.00
8334;BME280;4204;43.004;23.052;2022-10-01T11:16:40;94290.66;;;19.38;100.00
8334;BME280;4204;43.004;23.052;2022-10-01T11:19:23;94287.00;;;19.11;100.00
8334;BME280;4204;43.004;23.052;2022-10-01T11:22:11;94276.56;;;19.10;100.00
8334;BME280;4204;43.004;23.052;2022-10-01T11:24:54;94274.22;;;19.27;100.00
8334;BME280;4204;43.004;23.052;2022-10-01T11:27:35;94234.84;;;19.23;100.00
8334;BME280;4204;43.004;23.052;2022-10-01T11:30:09;94220.50;;;19.19;100.00
8334;BME280;4204;43.004;23.052;2022-10-01T11:32:39;94209.78;;;19.22;100.00
8334;BME280;4204;43.004;23.052;2022-10-01T11:35:28;94209.53;;;19.31;100.00
8334;BME280;4204;43.004;23.052;2022-10-01T11:38:28;94218.44;;;19.51;100.00
8334;BME280;4204;43.004;23.052;2022-10-01T11:41:08;94220.56;;;19.42;100.00
8334;BME280;4204;43.004;23.052;2022-10-01T11:43:43;94214.09;;;19.46;100.00
8334;BME280;4204;43.004;23.052;2022-10-01T11:46:19;94223.63;;;19.21;100.00
8334;BME280;4204;43.004;23.052;2022-10-01T11:48:51;94217.59;;;19.08;100.00
8334;BME280;4204;43.004;23.052;2022-10-01T11:51:26;94178.94;;;19.01;100.00
8334;BME280;4204;43.004;23.052;2022-10-01T11:53:59;94174.88;;;19.10;100.00
8334;BME280;4204;43.004;23.052;2022-10-01T11:56:32;94169.41;;;19.26;100.00
8334;BME280;4204;43.004;23.052;2022-10-01T11:59:23;94144.03;;;19.30;100.00
8334;BME280;4204;43.004;23.052;2022-10-01T12:02:00;94140.72;;;19.37;100.00
8334;BME280;4204;43.004;23.052;2022-10-01T12:04:33;94116.44;;;19.37;100.00
8334;BME280;4204;43.004;23.052;2022-10-01T12:07:09;94131.13;;;19.40;100.00
8334;BME280;4204;43.004;23.052;2022-10-01T12:09:46;94130.00;;;19.41;100.00
8334;BME280;4204;43.004;23.052;2022-10-01T12:12:21;94146.78;;;19.53;100.00
8334;BME280;4204;43.004;23.052;2022-10-01T12:14:57;94163.97;;;19.68;100.00
8334;BME280;4204;43.004;23.052;2022-10-01T12:29:57;94123.06;;;19.66;100.00
8334;BME280;4204;43.004;23.052;2022-10-01T12:32:33;94138.53;;;19.69;100.00
8334;BME280;4204;43.004;23.052;2022-10-01T12:35:12;94098.09;;;19.46;100.00
8334;BME280;4204;43.004;23.052;2022-10-01T12:37:57;94064.22;;;19.26;100.00
8334;BME280;4204;43.004;23.052;2022-10-01T12:40:33;94080.06;;;19.31;100.00
8334;BME280;4204;43.004;23.052;2022-10-01T12:43:29;94088.50;;;19.26;100.00
8334;BME280;4204;43.004;23.052;2022-10-01T12:46:10;94096.44;;;19.19;100.00
8334;BME280;4204;43.004;23.052;2022-10-01T12:48:48;94071.94;;;19.27;100.00
8334;BME280;4204;43.004;23.052;2022-10-01T12:51:36;94058.88;;;19.29;100.00
8334;BME280;4204;43.004;23.052;2022-10-01T12:56:59;94054.97;;;19.27;100.00
8334;BME280;4204;43.004;23.052;2022-10-01T12:59:40;94024.53;;;19.26;100.00
8334;BME280;4204;43.004;23.052;2022-10-01T13:02:24;94001.53;;;19.10;100.00
8334;BME280;4204;43.004;23.052;2022-10-01T13:05:06;94008.69;;;18.99;100.00
8334;BME280;4204;43.004;23.052;2022-10-01T13:07:49;94019.63;;;19.09;100.00
8334;BME280;4204;43.004;23.052;2022-10-01T13:10:34;94024.06;;;19.21;100.00
8334;BME280;4204;43.004;23.052;2022-10-01T13:13:14;94022.25;;;19.28;100.00
8334;BME280;4204;43.004;23.052;2022-10-01T13:15:45;94026.50;;;19.52;100.00
8334;BME280;4204;43.004;23.052;2022-10-01T13:18:25;94030.81;;;19.57;100.00
8334;BME280;4204;43.004;23.052;2022-10-01T13:21:05;94045.22;;;19.68;100.00
8334;BME280;4204;43.004;23.052;2022-10-01T13:23:41;94064.06;;;19.64;100.00
8334;BME280;4204;43.004;23.052;2022-10-01T13:26:17;94077.34;;;19.50;100.00
8334;BME280;4204;43.004;23.052;2022-10-01T13:28:57;94091.72;;;19.58;100.00
8334;BME280;4204;43.004;23.052;2022-10-01T13:31:33;94114.09;;;19.58;100.00
8334;BME280;4204;43.004;23.052;2022-10-01T13:34:23;94125.41;;;19.67;100.00
8334;BME280;4204;43.004;23.052;2022-10-01T13:36:52;94111.44;;;19.62;100.00
8334;BME280;4204;43.004;23.052;2022-10-01T13:39:20;94087.09;;;19.58;100.00
8334;BME280;4204;43.004;23.052;2022-10-01T13:41:52;94038.84;;;19.53;100.00
8334;BME280;4204;43.004;23.052;2022-10-01T13:44:26;94007.06;;;19.43;100.00
8334;BME280;4204;43.004;23.052;2022-10-01T13:47:01;93996.84;;;19.29;100.00
8334;BME280;4204;43.004;23.052;2022-10-01T13:49:33;93987.91;;;19.25;100.00
8334;BME280;4204;43.004;23.052;2022-10-01T13:52:03;93964.63;;;19.14;100.00
8334;BME280;4204;43.004;23.052;2022-10-01T13:54:36;93972.78;;;19.17;100.00
8334;BME280;4204;43.004;23.052;2022-10-01T13:57:08;93971.38;;;19.27;100.00
8334;BME280;4204;43.004;23.052;2022-10-01T13:59:37;93960.81;;;19.41;100.00
8334;BME280;4204;43.004;23.052;2022-10-01T14:02:27;93948.28;;;19.56;100.00
8334;BME280;4204;43.004;23.052;2022-10-01T14:05:14;93932.91;;;19.60;100.00
8334;BME280;4204;43.004;23.052;2022-10-01T14:07:51;93940.41;;;19.70;100.00
8334;BME280;4204;43.004;23.052;2022-10-01T14:10:30;93935.75;;;19.70;100.00
8334;BME280;4204;43.004;23.052;2022-10-01T14:13:02;93937.38;;;19.75;100.00
8334;BME280;4204;43.004;23.052;2022-10-01T14:15:49;93918.94;;;19.51;100.00
8334;BME280;4204;43.004;23.052;2022-10-01T14:18:32;93924.94;;;19.67;100.00
8334;BME280;4204;43.004;23.052;2022-10-01T14:21:12;93916.47;;;19.68;100.00
8334;BME280;4204;43.004;23.052;2022-10-01T14:23:50;93922.69;;;19.72;100.00
8334;BME280;4204;43.004;23.052;2022-10-01T14:26:27;93925.75;;;19.71;100.00
8334;BME280;4204;43.004;23.052;2022-10-01T14:29:08;93928.84;;;19.73;100.00
8334;BME280;4204;43.004;23.052;2022-10-01T14:31:52;93915.06;;;19.78;100.00
8334;BME280;4204;43.004;23.052;2022-10-01T14:34:46;93912.00;;;19.83;100.00
8334;BME280;4204;43.004;23.052;2022-10-01T14:37:19;93895.63;;;19.65;100.00
8334;BME280;4204;43.004;23.052;2022-10-01T14:39:59;93893.38;;;19.71;100.00
8334;BME280;4204;43.004;23.052;2022-10-01T14:42:27;93913.13;;;19.49;100.00
8334;BME280;4204;43.004;23.052;2022-10-01T14:44:55;93907.09;;;19.59;100.00
8334;BME280;4204;43.004;23.052;2022-10-01T14:47:24;93902.53;;;19.63;100.00
8334;BME280;4204;43.004;23.052;2022-10-01T14:50:07;93909.16;;;19.69;100.00
8334;BME280;4204;43.004;23.052;2022-10-01T14:52:40;93896.47;;;19.73;100.00
8334;BME280;4204;43.004;23.052;2022-10-01T14:55:13;93883.06;;;19.80;100.00
8334;BME280;4204;43.004;23.052;2022-10-01T14:57:42;93891.16;;;19.80;100.00
8334;BME280;4204;43.004;23.052;2022-10-01T15:00:14;93888.78;;;19.75;100.00
8334;BME280;4204;43.004;23.052;2022-10-01T15:02:43;93878.00;;;19.75;100.00
8334;BME280;4204;43.004;23.052;2022-10-01T15:05:19;93873.38;;;19.75;100.00
8334;BME280;4204;43.004;23.052;2022-10-01T15:07:48;93878.00;;;19.75;100.00
8334;BME280;4204;43.004;23.052;2022-10-01T15:10:19;93873.50;;;19.53;100.00
8334;BME280;4204;43.004;23.052;2022-10-01T15:16:52;93851.63;;;19.61;100.00
8334;BME280;4204;43.004;23.052;2022-10-01T15:19:21;93844.69;;;19.64;100.00
8334;BME280;4204;43.004;23.052;2022-10-01T15:21:51;93842.00;;;19.64;100.00
8334;BME280;4204;43.004;23.052;2022-10-01T15:24:28;93830.34;;;19.56;100.00
8334;BME280;4204;43.004;23.052;2022-10-01T15:26:59;93843.72;;;19.46;100.00
8334;BME280;4204;43.004;23.052;2022-10-01T15:29:28;93838.97;;;19.35;100.00
8334;BME280;4204;43.004;23.052;2022-10-01T15:31:57;93838.44;;;19.26;100.00
8334;BME280;4204;43.004;23.052;2022-10-01T15:34:26;93822.13;;;19.16;100.00
8334;BME280;4204;43.004;23.052;2022-10-01T15:36:54;93821.63;;;19.07;100.00
8334;BME280;4204;43.004;23.052;2022-10-01T15:39:31;93809.75;;;19.11;100.00